Airfield :
LOGIN :

Register | Disclaimer

   EN    FR    IT 

 










Legend :    VFR   Marginal VFR   IFR   Intensive IFR   Very Intensive IFR
Visi :
Ceiling :
>= 8 km
>= 3000ft
5 to 8 km
1000 to 3000 ft
1500m to 5 km
500 to 1000 ft
800 to 1500m
200 to 500 ft
< 800m
< 200 ft
Symbols :   Thunderstorms  Fog  Heavy snow  Heavy precipitations  Wind > 20 kt
SIGMETs :     Misc.  Thunderstorms  Icing  Turbulence  Mountain Waves  Volcanic Ashes






- Airport Elevation : 101 ft
- IATA code : HAD


ESMT - Halmstad

CURRENT METAR :
  • 090420Z AUTO 14008KT 9000 -RA FEW023/// OVC026/// 06/04 Q1007 REUP

EXPIRED METARs :
  • 090350Z AUTO 12009KT 9000 UP OVC033/// 06/03 Q1007 REUP
  • 090320Z AUTO 12010KT 090V150 9999 UP FEW024/// SCT032/// OVC042/// 05/03 Q1008
  • 090250Z AUTO 12008KT 9999 UP BKN031/// 06/03 Q1008 REUP
  • 090220Z AUTO 14009KT 110V170 9999 UP SCT020/// BKN037/// 06/02 Q1009 REUP
  • 090150Z AUTO 15009KT 9999 UP SCT020/// 07/01 Q1009

Expired Forecast.



MET'MAP, your aeronautical weather chart ! - Copyright ORBIFLY December 2007 - Disclaimer

ORBIFLY MET'MAP TEAM :

Programming & Development : Alexandra Zaïnal
Concept & original design : Baudouin d'Aumeries
Assistance for programming : Marc-Olivier Méhu
Technical & hardware support : Manuel Goepfert

Contact : metmap@orbifly.com




SOURCES & CREDITS :

   NOAA